Time;durP1;ratioP1;P1;durP2;ratioP2;P2;SDS_P1;SDS_P2;PMS_P1;PMS_P2;Temp;Humidity;BMP_temperature;BMP_pressure;BME280_temperature;BME280_humidity;BME280_pressure;Samples;Min_cycle;Max_cycle;Signal;HPM_P1;HPM_P2
2022/07/19 00:01:14;;;;;;;23.85;4.68;;;;;;;32.31;48.46;100738.91;4199355;28;20044;-59
2022/07/19 00:03:22;;;;;;;13.82;3.90;;;;;;;32.24;48.35;100733.03;4199477;28;20166;-60
2022/07/19 00:05:23;;;;;;;10.60;3.83;;;;;;;32.31;48.15;100746.59;4199458;28;20086;-60
2022/07/19 00:07:25;;;;;;;12.55;3.40;;;;;;;32.30;48.97;100745.78;4198289;28;20093;-60
2022/07/19 00:09:27;;;;;;;13.80;3.90;;;;;;;32.32;48.51;100754.72;4199232;28;20120;-60
2022/07/19 00:11:28;;;;;;;10.70;3.67;;;;;;;32.30;48.78;100759.94;4199471;28;20041;-60
2022/07/19 00:13:30;;;;;;;7.88;3.17;;;;;;;32.30;48.51;100770.41;4199342;28;20044;-60
2022/07/19 00:15:34;;;;;;;17.60;3.55;;;;;;;32.29;48.75;100777.25;4210458;28;20043;-60
2022/07/19 00:17:39;;;;;;;10.88;3.33;;;;;;;32.29;49.00;100780.91;4215649;28;20101;-59
2022/07/19 00:19:41;;;;;;;13.93;3.65;;;;;;;32.30;48.81;100774.09;4215077;28;20028;-60
2022/07/19 00:21:42;;;;;;;12.18;3.70;;;;;;;32.29;49.16;100775.25;4216010;28;20040;-60
2022/07/19 00:23:44;;;;;;;10.73;3.30;;;;;;;32.28;49.07;100773.59;4215429;28;20188;-60
2022/07/19 00:25:45;;;;;;;5.05;2.70;;;;;;;32.27;48.87;100763.47;4202367;28;20083;-61
2022/07/19 00:27:46;;;;;;;7.00;2.65;;;;;;;32.20;48.66;100748.28;4199414;28;20098;-60
2022/07/19 00:29:48;;;;;;;6.60;2.53;;;;;;;32.28;48.91;100756.63;4198829;28;20094;-60
2022/07/19 00:31:52;;;;;;;8.00;2.92;;;;;;;32.27;48.79;100754.97;4199000;28;20109;-60
2022/07/19 00:33:53;;;;;;;8.70;2.97;;;;;;;32.27;49.07;100759.81;4199049;28;20036;-60
2022/07/19 00:35:57;;;;;;;6.82;2.78;;;;;;;32.17;48.80;100744.19;4212494;28;20093;-64
2022/07/19 00:38:07;;;;;;;5.72;2.35;;;;;;;32.21;49.14;100756.44;4200116;28;20078;-59
2022/07/19 00:40:09;;;;;;;9.15;2.97;;;;;;;32.26;48.87;100763.84;4196914;28;20098;-60
2022/07/19 00:42:14;;;;;;;8.70;2.97;;;;;;;32.25;49.11;100760.16;4198961;28;20070;-60
2022/07/19 00:44:21;;;;;;;8.88;2.58;;;;;;;32.26;49.03;100763.84;4198811;28;20185;-60
2022/07/19 00:46:27;;;;;;;5.55;2.55;;;;;;;32.25;48.91;100756.53;4215293;28;20044;-60
2022/07/19 00:48:29;;;;;;;5.03;2.67;;;;;;;32.22;48.47;100751.59;4215494;28;20028;-60
2022/07/19 00:50:31;;;;;;;12.48;2.80;;;;;;;32.24;48.61;100754.88;4215444;28;20039;-60
2022/07/19 00:52:36;;;;;;;7.28;2.30;;;;;;;32.24;49.00;100772.69;4215298;28;20044;-60
2022/07/19 00:54:39;;;;;;;;;;;;;;;32.23;48.63;100793.69;4215128;28;20097;-60
2022/07/19 00:56:42;;;;;;;8.18;2.70;;;;;;;32.26;48.63;100781.66;4215514;28;20425;-60
2022/07/19 00:58:43;;;;;;;3.88;2.15;;;;;;;32.27;48.72;100777.63;4214545;28;20093;-60
2022/07/19 01:00:45;;;;;;;9.20;2.25;;;;;;;32.24;48.77;100777.53;4214866;28;20093;-60
2022/07/19 01:02:47;;;;;;;8.60;2.67;;;;;;;32.27;48.59;100800.28;4215328;28;20094;-60
2022/07/19 01:04:49;;;;;;;4.28;2.28;;;;;;;32.27;48.59;100800.28;4210701;28;20052;-60
2022/07/19 01:06:50;;;;;;;5.45;2.03;;;;;;;32.26;48.53;100809.97;4198587;28;20037;-60
2022/07/19 01:08:51;;;;;;;4.80;2.30;;;;;;;32.19;48.34;100800.44;4198097;28;20086;-60
2022/07/19 01:10:53;;;;;;;5.82;2.38;;;;;;;32.22;48.35;100797.72;4198433;28;20040;-60
2022/07/19 01:12:55;;;;;;;3.65;1.90;;;;;;;32.25;48.38;100815.97;4198100;28;20037;-60
2022/07/19 01:14:57;;;;;;;6.30;2.30;;;;;;;32.19;48.71;100787.09;4202812;28;20044;-60
2022/07/19 01:17:02;;;;;;;3.65;1.85;;;;;;;32.23;48.95;100805.03;4214987;28;20044;-60
2022/07/19 01:19:07;;;;;;;5.38;2.28;;;;;;;32.23;48.95;100799.34;4214463;28;20032;-60
2022/07/19 01:21:16;;;;;;;4.47;2.50;;;;;;;32.24;48.57;100801.00;4214714;28;20364;-59
2022/07/19 01:23:18;;;;;;;4.13;2.30;;;;;;;32.20;48.84;100791.59;4210144;28;20090;-60
2022/07/19 01:25:27;;;;;;;5.95;2.05;;;;;;;32.23;48.76;100792.88;4194508;28;20045;-60
2022/07/19 01:27:31;;;;;;;3.67;2.03;;;;;;;32.23;48.62;100805.03;4181642;28;20086;-60
2022/07/19 01:29:35;;;;;;;2.67;1.80;;;;;;;32.19;48.88;100801.25;4181465;28;20049;-60
2022/07/19 01:31:38;;;;;;;3.95;2.47;;;;;;;32.16;48.86;100776.50;4181616;28;20028;-60
2022/07/19 01:33:42;;;;;;;4.60;2.28;;;;;;;32.22;48.77;100775.06;4195993;28;20047;-60
2022/07/19 01:35:44;;;;;;;3.05;2.03;;;;;;;32.23;49.00;100773.06;4214475;28;20108;-60
2022/07/19 01:37:46;;;;;;;5.10;2.03;;;;;;;32.22;48.69;100779.91;4214979;28;20044;-60
2022/07/19 01:39:47;;;;;;;2.97;1.92;;;;;;;32.23;48.57;100784.38;4214527;28;20044;-60
2022/07/19 01:41:48;;;;;;;5.18;1.90;;;;;;;32.21;49.14;100778.25;4214330;28;20036;-60
2022/07/19 01:43:50;;;;;;;5.25;2.20;;;;;;;32.20;49.03;100782.25;4206982;28;20476;-60
2022/07/19 01:45:53;;;;;;;3.28;1.60;;;;;;;32.20;49.14;100783.09;4197954;28;20085;-60
2022/07/19 01:47:57;;;;;;;4.22;1.98;;;;;;;32.19;48.89;100801.25;4197423;28;20048;-60
2022/07/19 01:49:59;;;;;;;3.72;1.70;;;;;;;32.19;49.25;100809.75;4196612;28;20078;-60
2022/07/19 01:52:00;;;;;;;6.35;2.05;;;;;;;32.20;49.15;100810.56;4197105;28;20040;-60
2022/07/19 01:54:04;;;;;;;4.75;2.28;;;;;;;32.18;49.04;100808.13;4206137;28;20047;-60
2022/07/19 01:56:06;;;;;;;10.77;2.47;;;;;;;32.18;49.49;100807.31;4214270;28;20100;-60
2022/07/19 01:58:11;;;;;;;7.50;2.42;;;;;;;32.13;49.23;100812.03;4213870;28;20491;-60
2022/07/19 02:00:15;;;;;;;19.52;3.15;;;;;;;32.14;49.19;100821.34;4201059;28;20028;-60
2022/07/19 02:02:16;;;;;;;;;;;;;;;32.16;49.28;100827.47;4198095;28;20036;-59
2022/07/19 02:04:17;;;;;;;9.27;3.00;;;;;;;32.21;48.83;100841.38;4205905;28;20003;-60
2022/07/19 02:06:19;;;;;;;20.33;3.13;;;;;;;32.22;48.99;100848.69;4202030;28;20040;-59
2022/07/19 02:08:20;;;;;;;18.88;4.50;;;;;;;32.17;49.32;100848.13;4197305;28;20033;-60
2022/07/19 02:10:22;;;;;;;14.68;2.88;;;;;;;32.19;49.18;100854.22;4197321;28;20443;-60
2022/07/19 02:12:23;;;;;;;16.40;3.03;;;;;;;32.17;49.58;100863.09;4195445;28;20036;-60
2022/07/19 02:14:25;;;;;;;17.92;3.20;;;;;;;32.16;49.09;100861.44;4198342;28;20079;-59
2022/07/19 02:16:26;;;;;;;20.85;3.38;;;;;;;32.15;49.21;100854.13;4197238;28;20036;-59
2022/07/19 02:18:28;;;;;;;19.85;3.20;;;;;;;32.16;49.02;100852.94;4197155;28;20435;-60
2022/07/19 02:20:30;;;;;;;12.70;3.50;;;;;;;32.12;49.31;100849.22;4198036;28;20036;-60
2022/07/19 02:22:31;;;;;;;14.60;2.90;;;;;;;32.13;49.15;100846.00;4213912;28;20093;-60
2022/07/19 02:24:32;;;;;;;21.70;3.35;;;;;;;32.12;49.36;100855.69;4214183;28;20040;-60
2022/07/19 02:26:34;;;;;;;34.38;4.13;;;;;;;32.12;49.50;100840.72;4214335;28;20078;-60
2022/07/19 02:28:36;;;;;;;21.25;3.47;;;;;;;32.12;49.44;100837.88;4213879;28;20036;-59
2022/07/19 02:30:37;;;;;;;18.77;2.92;;;;;;;32.12;49.15;100820.91;4213292;28;20085;-58
2022/07/19 02:32:39;;;;;;;11.20;2.95;;;;;;;32.03;49.48;100826.72;4213942;28;20433;-58
2022/07/19 02:34:41;;;;;;;23.80;4.40;;;;;;;32.01;49.16;100820.56;4214171;28;20036;-58
2022/07/19 02:36:42;;;;;;;21.15;3.42;;;;;;;32.12;49.08;100823.72;4213809;28;20109;-58
2022/07/19 02:38:47;;;;;;;16.27;3.15;;;;;;;32.10;49.12;100815.56;4201700;28;20458;-58
2022/07/19 02:40:54;;;;;;;23.80;3.17;;;;;;;32.10;49.29;100821.25;4211337;28;20040;-58
2022/07/19 02:42:58;;;;;;;21.08;3.83;;;;;;;32.10;49.19;100824.06;4213866;28;20101;-58
2022/07/19 02:44:59;;;;;;;16.05;3.45;;;;;;;32.08;49.49;100826.44;4213657;28;20044;-58
2022/07/19 02:47:00;;;;;;;24.10;3.63;;;;;;;32.08;49.51;100825.63;4213988;28;20085;-58
2022/07/19 02:49:02;;;;;;;17.83;3.20;;;;;;;32.09;49.13;100838.59;4212011;28;20493;-58
2022/07/19 02:51:03;;;;;;;19.83;3.75;;;;;;;32.06;49.52;100827.97;4210862;28;20085;-59
2022/07/19 02:53:05;;;;;;;15.18;3.33;;;;;;;31.99;49.14;100810.81;4197220;28;20484;-59
2022/07/19 02:55:07;;;;;;;14.15;3.28;;;;;;;32.08;49.29;100834.13;4197100;28;20090;-58
2022/07/19 02:57:08;;;;;;;12.98;3.45;;;;;;;32.02;49.31;100832.72;4199059;28;20487;-58
2022/07/19 02:59:09;;;;;;;15.13;2.90;;;;;;;32.04;49.43;100830.38;4213348;28;20097;-58
2022/07/19 03:01:10;;;;;;;13.38;2.83;;;;;;;32.08;49.24;100845.44;4213778;28;20048;-58
2022/07/19 03:05:34;;;;;;;11.35;2.67;;;;;;;32.08;49.13;100848.28;4214169;28;20560;-58
2022/07/19 03:07:36;;;;;;;12.50;2.95;;;;;;;32.05;49.26;100846.97;4213072;28;20105;-58
2022/07/19 03:09:40;;;;;;;10.13;3.47;;;;;;;32.03;49.04;100840.03;4213332;28;20533;-58
2022/07/19 03:11:41;;;;;;;12.73;2.90;;;;;;;32.07;49.39;100852.25;4213556;28;20044;-58
2022/07/19 03:13:43;;;;;;;15.30;3.00;;;;;;;32.07;49.15;100852.25;4213644;28;20036;-58
2022/07/19 03:15:44;;;;;;;18.50;3.22;;;;;;;32.06;49.43;100850.63;4210035;28;20426;-58
2022/07/19 03:17:45;;;;;;;21.17;2.90;;;;;;;32.05;49.00;100844.16;4199002;28;20052;-60
2022/07/19 03:19:47;;;;;;;9.18;2.75;;;;;;;32.05;49.07;100841.31;4199370;28;20101;-58
2022/07/19 03:21:48;;;;;;;11.77;2.80;;;;;;;32.05;49.23;100843.31;4200011;28;20078;-59
2022/07/19 03:23:50;;;;;;;7.25;2.67;;;;;;;32.05;49.04;100837.66;4199983;28;20044;-59
2022/07/19 03:25:51;;;;;;;11.40;2.50;;;;;;;32.05;48.95;100832.00;4203555;28;20044;-58
2022/07/19 03:27:53;;;;;;;12.95;3.17;;;;;;;32.06;49.10;100836.47;4216495;28;20558;-59
2022/07/19 03:29:54;;;;;;;13.02;3.00;;;;;;;32.05;49.07;100834.84;4216360;28;20471;-59
2022/07/19 03:31:57;;;;;;;10.27;3.15;;;;;;;32.00;49.05;100827.44;4216186;28;20051;-59
2022/07/19 03:33:58;;;;;;;8.35;3.03;;;;;;;32.03;49.03;100838.03;4216094;28;20102;-58
2022/07/19 03:36:00;;;;;;;7.55;2.90;;;;;;;32.02;48.81;100835.53;4215818;28;20065;-59
2022/07/19 03:38:01;;;;;;;13.00;2.90;;;;;;;32.03;48.83;100851.38;4216129;28;20093;-59
2022/07/19 03:40:04;;;;;;;8.13;3.13;;;;;;;32.03;48.90;100845.72;4215986;28;20040;-59
2022/07/19 03:42:08;;;;;;;11.63;2.50;;;;;;;32.03;49.05;100840.03;4216302;28;20438;-58
2022/07/19 03:44:09;;;;;;;11.13;3.00;;;;;;;32.03;49.08;100842.88;4216044;28;20442;-58
2022/07/19 03:46:10;;;;;;;12.95;3.17;;;;;;;32.04;49.17;100847.34;4210130;28;20028;-58
2022/07/19 03:48:12;;;;;;;11.70;3.00;;;;;;;32.02;49.16;100838.38;4199674;28;20098;-60
2022/07/19 03:50:13;;;;;;;14.75;3.08;;;;;;;32.03;49.11;100845.72;4185309;28;20075;-60
2022/07/19 03:52:15;;;;;;;8.50;2.78;;;;;;;32.00;49.24;100847.22;4196737;28;20036;-59
2022/07/19 03:54:16;;;;;;;10.95;2.95;;;;;;;32.03;48.94;100851.38;4199957;28;20106;-59
2022/07/19 03:56:20;;;;;;;11.55;2.67;;;;;;;32.03;48.82;100848.53;4206031;28;20036;-58
2022/07/19 03:58:21;;;;;;;9.95;2.33;;;;;;;32.02;48.76;100855.34;4216296;28;20052;-58
2022/07/19 04:00:23;;;;;;;8.45;3.30;;;;;;;32.03;48.83;100854.19;4215973;28;20040;-58
2022/07/19 04:02:26;;;;;;;7.13;2.80;;;;;;;32.02;48.85;100849.69;4216125;28;20097;-58
2022/07/19 04:04:28;;;;;;;7.55;2.90;;;;;;;32.01;48.95;100843.22;4216038;28;20471;-58
2022/07/19 04:06:29;;;;;;;8.43;2.80;;;;;;;32.02;48.98;100844.03;4207497;28;20032;-58
2022/07/19 04:08:33;;;;;;;8.90;2.90;;;;;;;32.02;48.98;100838.38;4199374;28;20542;-59
2022/07/19 04:10:34;;;;;;;10.10;3.33;;;;;;;32.00;49.04;100847.22;4193797;28;20102;-59
2022/07/19 04:12:36;;;;;;;8.82;2.70;;;;;;;32.01;48.91;100843.22;4199232;28;20033;-58
2022/07/19 04:14:37;;;;;;;13.50;2.80;;;;;;;32.00;49.11;100840.75;4204216;28;20044;-59
2022/07/19 04:16:41;;;;;;;9.73;2.92;;;;;;;32.01;49.06;100839.56;4215669;28;20036;-58
2022/07/19 04:18:42;;;;;;;8.60;3.13;;;;;;;32.00;48.85;100835.91;4215409;28;20048;-58
2022/07/19 04:20:44;;;;;;;7.10;2.72;;;;;;;32.00;48.79;100832.25;4215958;28;20372;-58
2022/07/19 04:22:45;;;;;;;7.75;2.78;;;;;;;32.00;48.99;100829.44;4215645;28;20387;-58
2022/07/19 04:24:49;;;;;;;8.88;2.60;;;;;;;31.99;48.97;100833.44;4215671;28;20102;-58
2022/07/19 04:26:50;;;;;;;10.55;2.55;;;;;;;32.00;49.06;100835.09;4200681;28;20044;-58
2022/07/19 04:28:52;;;;;;;13.02;3.08;;;;;;;32.00;48.80;100835.09;4198452;28;20048;-58
2022/07/19 04:30:56;;;;;;;10.27;2.63;;;;;;;31.99;48.93;100834.28;4199053;28;20048;-58
2022/07/19 04:32:57;;;;;;;5.43;2.20;;;;;;;32.00;49.14;100837.91;4199160;28;20450;-58
2022/07/19 04:34:58;;;;;;;6.57;2.67;;;;;;;31.98;48.90;100832.63;4206492;28;20089;-58
2022/07/19 04:36:59;;;;;;;5.88;2.38;;;;;;;31.99;49.16;100827.78;4215659;28;20564;-58
2022/07/19 04:39:03;;;;;;;6.35;2.80;;;;;;;31.96;49.02;100829.31;4215232;28;20040;-58
2022/07/19 04:41:05;;;;;;;6.57;2.22;;;;;;;31.98;49.10;100828.94;4215568;28;20149;-58
2022/07/19 04:43:06;;;;;;;6.45;2.25;;;;;;;31.99;48.89;100836.28;4215829;28;20097;-58
2022/07/19 04:45:08;;;;;;;7.10;2.40;;;;;;;31.99;48.73;100824.97;4206458;28;20113;-58
2022/07/19 04:47:10;;;;;;;8.15;2.65;;;;;;;31.96;49.08;100822.84;4198632;28;20045;-58
2022/07/19 04:49:14;;;;;;;7.32;2.55;;;;;;;31.97;48.77;100825.31;4198542;28;20041;-58
2022/07/19 04:51:15;;;;;;;5.85;2.42;;;;;;;31.98;48.84;100831.78;4198452;28;20037;-58
2022/07/19 04:53:16;;;;;;;5.82;2.40;;;;;;;31.93;49.08;100824.38;4204873;28;20036;-58
2022/07/19 04:55:18;;;;;;;5.70;2.20;;;;;;;31.97;48.96;100830.13;4215182;28;20561;-58
2022/07/19 04:57:22;;;;;;;5.47;2.40;;;;;;;31.98;49.00;100834.63;4214895;28;20109;-58
2022/07/19 04:59:26;;;;;;;8.82;2.65;;;;;;;31.94;48.93;100837.38;4214574;28;20040;-58
2022/07/19 05:01:30;;;;;;;6.38;2.38;;;;;;;31.98;49.01;100845.94;4215200;28;20048;-58
2022/07/19 05:03:32;;;;;;;6.18;2.63;;;;;;;31.97;48.92;100849.94;4206615;28;20090;-58
2022/07/19 05:05:33;;;;;;;6.35;2.65;;;;;;;31.96;49.05;100840.66;4198267;28;20036;-58
2022/07/19 05:07:34;;;;;;;5.38;2.15;;;;;;;31.98;48.73;100843.09;4198161;28;20089;-58
2022/07/19 05:09:38;;;;;;;4.50;2.22;;;;;;;31.97;48.86;100838.63;4198239;28;20549;-58
2022/07/19 05:11:40;;;;;;;6.60;2.63;;;;;;;31.94;48.64;100833.72;4204336;28;20429;-58
2022/07/19 05:13:44;;;;;;;7.68;2.70;;;;;;;31.93;48.71;100834.88;4214319;28;20089;-58
2022/07/19 05:15:45;;;;;;;6.45;2.78;;;;;;;31.97;48.68;100838.63;4213771;28;20422;-59
2022/07/19 05:17:47;;;;;;;9.25;2.40;;;;;;;31.97;48.65;100835.81;4215249;28;20031;-58
2022/07/19 05:19:51;;;;;;;6.85;2.63;;;;;;;31.97;48.86;100841.47;4214995;28;20069;-58
2022/07/19 05:21:52;;;;;;;5.20;2.28;;;;;;;31.96;48.71;100834.16;4214714;28;20040;-58
2022/07/19 05:23:53;;;;;;;6.05;2.65;;;;;;;31.97;48.62;100841.47;4214769;28;20032;-58
2022/07/19 05:25:55;;;;;;;6.82;2.47;;;;;;;31.97;48.69;100847.13;4204663;28;20484;-58
2022/07/19 05:27:56;;;;;;;5.65;2.60;;;;;;;31.95;48.86;100850.31;4198202;28;20052;-59
2022/07/19 05:30:03;;;;;;;7.55;2.22;;;;;;;31.95;48.55;100846.66;4198881;28;20041;-58
2022/07/19 05:32:04;;;;;;;5.55;2.70;;;;;;;31.96;48.85;100845.47;4214672;28;20093;-58
2022/07/19 05:34:06;;;;;;;4.32;2.35;;;;;;;31.91;48.88;100842.91;4214888;28;20044;-58
2022/07/19 05:36:10;;;;;;;5.63;1.88;;;;;;;31.95;48.95;100843.84;4213821;28;20097;-58
2022/07/19 05:38:14;;;;;;;5.45;2.20;;;;;;;31.94;48.79;100845.03;4214884;28;20039;-58
2022/07/19 05:40:16;;;;;;;5.68;2.47;;;;;;;31.93;48.82;100849.84;4210094;28;20438;-58
2022/07/19 05:42:17;;;;;;;4.70;2.33;;;;;;;31.95;48.92;100849.50;4197677;28;20442;-58
2022/07/19 05:44:18;;;;;;;4.93;2.22;;;;;;;31.94;48.66;100842.19;4197912;28;20044;-58
2022/07/19 05:46:20;;;;;;;7.07;2.60;;;;;;;31.94;48.89;100842.19;4197708;28;20040;-58
2022/07/19 05:48:21;;;;;;;5.15;2.13;;;;;;;31.86;48.93;100835.50;4198281;28;20041;-58
2022/07/19 05:50:23;;;;;;;2.92;2.00;;;;;;;31.90;48.85;100852.59;4214145;28;20043;-58
2022/07/19 05:52:30;;;;;;;3.42;2.22;;;;;;;31.89;48.70;100851.78;4214277;28;20039;-58
2022/07/19 05:54:31;;;;;;;11.55;2.15;;;;;;;31.93;48.89;100863.16;4214378;28;20036;-58
2022/07/19 05:56:32;;;;;;;4.32;2.92;;;;;;;31.93;48.87;100864.00;4214396;28;20094;-58
2022/07/19 05:58:37;;;;;;;7.68;2.67;;;;;;;31.93;48.83;100857.50;4211791;28;20468;-58
2022/07/19 06:01:17;;;;;;;4.47;2.55;;;;;;;31.92;49.07;100853.03;4197868;28;20044;-60
2022/07/19 06:03:03;;;;;;;5.28;1.98;;;;;;;31.86;48.59;100844.81;4197851;28;20057;-58
2022/07/19 06:05:07;;;;;;;4.88;2.60;;;;;;;31.88;48.70;100842.44;4197655;28;20044;-58
2022/07/19 06:07:09;;;;;;;3.78;2.15;;;;;;;31.92;48.94;100844.56;4197834;28;20032;-58
2022/07/19 06:09:12;;;;;;;6.10;2.45;;;;;;;31.84;48.69;100835.00;4197788;28;20092;-58
2022/07/19 06:11:15;;;;;;;5.45;2.15;;;;;;;31.92;48.74;100841.72;4197656;28;20052;-58
2022/07/19 06:13:16;;;;;;;3.17;1.80;;;;;;;31.90;48.80;100838.44;4197667;28;20044;-58
2022/07/19 06:15:17;;;;;;;5.35;2.25;;;;;;;31.90;48.57;100832.78;4197405;28;20102;-58
2022/07/19 06:17:19;;;;;;;5.47;2.20;;;;;;;31.86;48.94;100830.66;4197443;28;20102;-58
2022/07/19 06:19:23;;;;;;;2.97;2.00;;;;;;;31.91;48.76;100837.25;4204406;28;20027;-58
2022/07/19 06:21:24;;;;;;;3.72;2.08;;;;;;;31.90;48.62;100825.09;4212063;28;20092;-59
2022/07/19 06:23:26;;;;;;;2.50;2.00;;;;;;;31.87;48.90;100820.97;4197148;28;20040;-58
2022/07/19 06:25:27;;;;;;;4.78;2.00;;;;;;;31.91;48.61;100817.44;4197455;28;20052;-58
2022/07/19 06:27:28;;;;;;;3.17;2.10;;;;;;;31.91;48.82;100820.28;4197599;28;20040;-59
2022/07/19 06:29:30;;;;;;;5.25;1.73;;;;;;;31.90;48.76;100822.28;4197050;28;20044;-58
2022/07/19 06:31:31;;;;;;;4.35;2.42;;;;;;;31.90;48.49;100816.63;4198496;28;20086;-58
2022/07/19 06:33:32;;;;;;;4.47;2.25;;;;;;;31.90;48.55;100815.81;4213121;28;20438;-58
2022/07/19 06:35:34;;;;;;;2.70;1.88;;;;;;;31.90;48.45;100822.28;4214275;28;20475;-58
2022/07/19 06:37:35;;;;;;;3.50;2.22;;;;;;;31.87;48.79;100815.31;4213934;28;20032;-58
2022/07/19 06:39:36;;;;;;;5.03;2.22;;;;;;;31.90;48.70;100824.28;4213899;28;20052;-58
2022/07/19 06:41:38;;;;;;;3.15;2.22;;;;;;;31.87;48.52;100818.16;4212336;28;20417;-58
2022/07/19 06:43:40;;;;;;;3.70;2.22;;;;;;;31.88;48.49;100822.63;4197647;28;20097;-58
2022/07/19 06:45:55;;;;;;;2.95;1.80;;;;;;;31.88;48.56;100822.63;4197256;28;20044;-58
2022/07/19 06:47:59;;;;;;;3.83;2.00;;;;;;;31.85;48.55;100814.88;4196766;28;20049;-58
2022/07/19 06:50:01;;;;;;;;;;;;;;;31.86;48.63;100819.34;4197397;28;20086;-59
2022/07/19 06:52:04;;;;;;;2.75;1.88;;;;;;;31.92;48.37;100816.25;4202794;28;20382;-59
2022/07/19 06:54:06;;;;;;;3.13;2.33;;;;;;;31.91;48.46;100808.94;4217485;28;20533;-60
2022/07/19 06:56:07;;;;;;;3.47;2.45;;;;;;;31.91;48.39;100820.28;4217498;28;20043;-58
2022/07/19 06:58:09;;;;;;;3.83;2.67;;;;;;;31.90;48.57;100818.63;4217090;28;20040;-58
2022/07/19 07:00:11;;;;;;;3.55;1.90;;;;;;;31.88;48.69;100811.31;4216755;28;20093;-59
2022/07/19 07:02:18;;;;;;;2.70;2.05;;;;;;;31.81;48.41;100805.41;4211365;28;20444;-58
2022/07/19 07:04:20;;;;;;;4.00;2.30;;;;;;;31.86;48.42;100808.03;4200508;28;20040;-58
2022/07/19 07:06:26;;;;;;;3.15;2.30;;;;;;;31.86;48.54;100807.19;4200320;28;20966;-58
2022/07/19 07:08:27;;;;;;;2.85;2.00;;;;;;;31.87;48.47;100812.50;4200140;28;20032;-58
2022/07/19 07:10:31;;;;;;;2.22;2.03;;;;;;;31.85;48.58;100812.03;4200212;28;20476;-59
2022/07/19 07:12:34;;;;;;;2.78;2.40;;;;;;;31.86;48.51;100822.16;4201171;28;20045;-59
2022/07/19 07:14:35;;;;;;;2.55;2.00;;;;;;;31.83;48.70;100808.72;4200338;28;20036;-58
2022/07/19 07:16:36;;;;;;;2.55;1.90;;;;;;;31.84;48.62;100816.06;4200374;28;20040;-59
2022/07/19 07:18:38;;;;;;;3.20;1.88;;;;;;;31.85;48.45;100814.88;4199647;28;20442;-58
2022/07/19 07:20:39;;;;;;;3.38;2.20;;;;;;;31.83;48.49;100808.72;4199998;28;20036;-59
2022/07/19 07:22:41;;;;;;;2.78;2.15;;;;;;;31.79;48.39;100804.94;4200582;28;20110;-58
2022/07/19 07:24:42;;;;;;;2.15;1.95;;;;;;;31.81;48.55;100804.59;4200113;28;20093;-58
2022/07/19 07:26:43;;;;;;;5.95;1.98;;;;;;;31.83;48.42;100808.72;4200051;28;20044;-58
2022/07/19 07:28:45;;;;;;;3.05;1.90;;;;;;;31.80;48.61;100809.44;4199746;28;20041;-58
2022/07/19 07:30:49;;;;;;;3.70;2.10;;;;;;;31.83;48.46;100817.22;4200286;28;20032;-58
2022/07/19 07:32:53;;;;;;;3.75;2.15;;;;;;;31.80;48.50;100815.09;4209257;28;20449;-58
2022/07/19 07:34:54;;;;;;;3.17;1.80;;;;;;;31.81;48.75;100819.56;4214164;28;20093;-58
2022/07/19 07:36:56;;;;;;;4.07;1.90;;;;;;;31.83;48.63;100822.88;4216789;28;20032;-58
2022/07/19 07:39:00;;;;;;;3.40;2.08;;;;;;;31.81;48.76;100816.75;4216350;28;20109;-58
2022/07/19 07:41:03;;;;;;;3.05;2.17;;;;;;;31.81;48.44;100810.25;4210631;28;20074;-58
2022/07/19 07:43:05;;;;;;;3.55;1.70;;;;;;;31.80;48.78;100809.44;4205475;28;20037;-58
2022/07/19 07:45:09;;;;;;;2.67;2.03;;;;;;;31.81;48.61;100807.44;4199841;28;20442;-58
2022/07/19 07:47:11;;;;;;;4.50;2.05;;;;;;;31.80;48.76;100815.09;4199831;28;20125;-58
2022/07/19 07:49:15;;;;;;;2.30;2.10;;;;;;;31.80;48.48;100814.28;4199639;28;20349;-58
2022/07/19 07:51:16;;;;;;;3.60;2.00;;;;;;;31.71;48.66;100800.28;4199739;28;20040;-58
2022/07/19 07:53:17;;;;;;;1.95;1.75;;;;;;;31.80;48.49;100805.78;4211800;28;20085;-58
2022/07/19 07:55:18;;;;;;;3.83;1.92;;;;;;;31.78;48.77;100806.13;4214911;28;20052;-58
2022/07/19 07:57:20;;;;;;;3.00;2.05;;;;;;;31.74;48.62;100793.88;4205123;28;20102;-58
2022/07/19 07:59:21;;;;;;;2.22;1.90;;;;;;;31.78;48.79;100806.13;4198897;28;20036;-58
2022/07/19 08:01:22;;;;;;;2.25;1.83;;;;;;;31.78;48.45;100803.28;4199480;28;20454;-58
2022/07/19 08:03:24;;;;;;;2.53;1.85;;;;;;;31.72;48.43;100793.44;4211866;28;20036;-59
2022/07/19 08:05:25;;;;;;;2.20;2.00;;;;;;;31.71;48.61;100788.97;4216131;28;20040;-58
2022/07/19 08:07:29;;;;;;;5.47;1.92;;;;;;;31.73;48.63;100791.41;4216270;28;20048;-59
2022/07/19 08:09:31;;;;;;;2.22;2.03;;;;;;;31.78;48.50;100805.31;4215954;28;20039;-59
2022/07/19 08:11:35;;;;;;;2.95;2.08;;;;;;;31.76;48.65;100802.03;4215767;28;20032;-58
2022/07/19 08:13:36;;;;;;;2.13;1.98;;;;;;;31.75;48.66;100798.38;4215003;28;20105;-59
2022/07/19 08:15:41;;;;;;;3.75;2.13;;;;;;;31.69;48.55;100796.97;4215421;28;20446;-58
2022/07/19 08:17:45;;;;;;;2.40;2.20;;;;;;;31.73;48.58;100808.38;4216037;28;20040;-59
2022/07/19 08:19:46;;;;;;;2.83;2.33;;;;;;;31.76;48.79;100814.16;4215512;28;20040;-58
2022/07/19 08:21:50;;;;;;;2.50;2.22;;;;;;;31.72;48.48;100801.91;4215787;28;20077;-58
2022/07/19 08:23:54;;;;;;;2.65;2.20;;;;;;;31.76;48.64;100810.50;4215375;28;20077;-58
2022/07/19 08:25:58;;;;;;;2.20;1.52;;;;;;;31.76;48.77;100807.69;4215912;28;20097;-58
2022/07/19 08:28:09;;;;;;;2.67;2.03;;;;;;;31.75;48.34;100809.69;4215635;28;20040;-58
2022/07/19 08:30:12;;;;;;;3.08;2.30;;;;;;;31.75;48.54;100812.53;4204570;28;20044;-58
2022/07/19 08:32:13;;;;;;;2.40;2.20;;;;;;;31.75;48.46;100815.34;4199269;28;20083;-58
2022/07/19 08:34:15;;;;;;;3.30;1.88;;;;;;;31.74;48.52;100818.53;4198869;28;20101;-58
2022/07/19 08:36:16;;;;;;;2.30;1.80;;;;;;;31.74;48.54;100822.16;4199243;28;20033;-58
2022/07/19 08:38:20;;;;;;;2.00;1.80;;;;;;;31.75;48.53;100811.66;4196158;28;20109;-58
2022/07/19 08:40:24;;;;;;;2.75;2.10;;;;;;;31.74;48.56;100815.69;4209062;28;20040;-58
2022/07/19 08:42:25;;;;;;;2.63;1.92;;;;;;;31.75;48.46;100817.31;4215835;28;20048;-58
2022/07/19 08:44:29;;;;;;;2.10;1.90;;;;;;;31.70;48.33;100804.25;4215262;28;20032;-58
2022/07/19 08:46:31;;;;;;;1.75;1.65;;;;;;;31.67;48.49;100799.34;4215121;28;20040;-58
2022/07/19 08:48:39;;;;;;;2.33;2.13;;;;;;;31.73;48.47;100814.88;4215254;28;20090;-58
2022/07/19 08:50:41;;;;;;;3.78;2.10;;;;;;;31.74;48.54;100816.50;4200821;28;20055;-58
2022/07/19 08:52:42;;;;;;;2.30;2.10;;;;;;;31.73;48.56;100811.22;4198879;28;20090;-58
2022/07/19 08:54:43;;;;;;;2.38;1.98;;;;;;;31.69;48.37;100808.28;4198918;28;20048;-58
2022/07/19 08:59:05;;;;;;;2.20;2.00;;;;;;;31.72;48.55;100812.41;4214364;28;20078;-58
2022/07/19 09:01:09;;;;;;;2.47;2.08;;;;;;;31.72;48.65;100807.56;4215453;28;20043;-58
2022/07/19 09:03:11;;;;;;;3.13;2.17;;;;;;;31.71;48.49;100811.59;4215090;28;20109;-58
2022/07/19 09:05:16;;;;;;;2.20;2.00;;;;;;;31.69;48.38;100805.44;4215416;28;20426;-58
2022/07/19 09:07:20;;;;;;;2.65;1.80;;;;;;;31.72;48.33;100812.41;4215310;28;20453;-58
2022/07/19 09:09:29;;;;;;;2.55;2.30;;;;;;;31.72;48.45;100818.06;4198448;28;20308;-58
2022/07/19 09:11:48;;;;;;;2.10;1.90;;;;;;;31.71;48.26;100820.06;4198441;28;20040;-58
2022/07/19 09:13:50;;;;;;;2.42;2.22;;;;;;;31.72;48.41;100823.72;4198145;28;20109;-58
2022/07/19 09:15:56;;;;;;;2.35;2.15;;;;;;;31.72;48.53;100830.19;4197611;28;20476;-58
2022/07/19 09:18:16;;;;;;;2.38;2.13;;;;;;;31.68;48.45;100822.78;4202784;28;20093;-58
2022/07/19 09:20:32;;;;;;;2.40;2.10;;;;;;;31.67;48.40;100818.31;4214942;28;20020;-58
2022/07/19 09:22:33;;;;;;;2.53;2.33;;;;;;;31.71;48.47;100820.06;4214923;28;20036;-58
2022/07/19 09:24:49;;;;;;;2.60;2.13;;;;;;;31.68;48.38;100815.13;4214133;28;20414;-58
2022/07/19 09:27:05;;;;;;;3.83;2.05;;;;;;;31.68;48.45;100817.94;4215168;28;20048;-58
2022/07/19 09:29:17;;;;;;;2.88;2.42;;;;;;;31.61;48.59;100800.75;4200397;28;20040;-58
2022/07/19 09:31:18;;;;;;;1.98;1.73;;;;;;;31.70;48.37;100809.91;4198195;28;20070;-58
2022/07/19 09:33:30;;;;;;;2.15;2.03;;;;;;;31.69;48.40;100819.59;4198148;28;20082;-58
2022/07/19 09:35:57;;;;;;;2.40;2.17;;;;;;;31.66;48.26;100814.66;4198171;28;20804;-58